Time;durP1;ratioP1;P1;durP2;ratioP2;P2;SDS_P1;SDS_P2;PMS_P1;PMS_P2;Temp;Humidity;BMP_temperature;BMP_pressure;BME280_temperature;BME280_humidity;BME280_pressure;Samples;Min_cycle;Max_cycle;Signal;HPM_P1;HPM_P2
2022/06/05 00:01:23;;;;;;;27.05;13.07;;;11.80;99.90;;;;;;4975939;28;20065;-54
2022/06/05 00:04:00;;;;;;;21.52;12.73;;;11.90;99.90;;;;;;4975863;28;20454;-54
2022/06/05 00:06:43;;;;;;;20.92;12.43;;;11.30;99.90;;;;;;4976255;28;20057;-52
2022/06/05 00:09:55;;;;;;;23.00;13.20;;;11.80;99.90;;;;;;4975273;28;20078;-53
2022/06/05 00:12:28;;;;;;;24.77;13.75;;;12.10;99.90;;;;;;4878681;29;20664;-53
2022/06/05 00:14:54;;;;;;;23.48;13.50;;;11.90;99.90;;;;;;4863205;29;20088;-52
2022/06/05 00:17:21;;;;;;;22.90;13.43;;;11.80;99.90;;;;;;4878795;29;20185;-53
2022/06/05 00:19:50;;;;;;;22.50;13.52;;;12.50;99.90;;;;;;4878095;29;20118;-54
2022/06/05 00:22:17;;;;;;;23.98;14.57;;;11.80;99.90;;;;;;4878563;29;20124;-53
2022/06/05 00:24:43;;;;;;;28.65;14.93;;;11.70;99.90;;;;;;4877842;29;20092;-54
2022/06/05 00:27:28;;;;;;;22.45;14.07;;;11.80;99.90;;;;;;4878605;29;20088;-53
2022/06/05 00:30:21;;;;;;;27.60;14.98;;;11.80;99.90;;;;;;4878049;29;20041;-54
2022/06/05 00:32:58;;;;;;;24.05;14.23;;;12.00;99.90;;;;;;4878154;29;20447;-54
2022/06/05 00:35:30;;;;;;;26.60;14.57;;;11.80;99.90;;;;;;4878264;29;20048;-53
2022/06/05 00:38:15;;;;;;;25.52;14.02;;;12.40;99.90;;;;;;4877202;29;20072;-54
2022/06/05 00:41:16;;;;;;;21.88;14.57;;;11.80;99.90;;;;;;4877682;29;20057;-53
2022/06/05 00:43:42;;;;;;;24.30;14.60;;;11.80;99.90;;;;;;4956678;28;20054;-54
2022/06/05 00:46:08;;;;;;;23.00;14.38;;;11.50;99.90;;;;;;4957560;28;20042;-54
2022/06/05 00:48:33;;;;;;;27.48;15.15;;;12.00;99.90;;;;;;4975412;28;20065;-53
2022/06/05 00:50:59;;;;;;;22.58;14.50;;;11.80;99.90;;;;;;4974646;28;20435;-53
2022/06/05 00:53:25;;;;;;;26.10;14.77;;;11.70;99.90;;;;;;4974597;28;20050;-53
2022/06/05 00:55:52;;;;;;;22.52;15.38;;;11.80;99.90;;;;;;4974625;28;20051;-55
2022/06/05 00:58:19;;;;;;;22.08;14.60;;;11.70;99.90;;;;;;4975175;28;20058;-54
2022/06/05 01:00:54;;;;;;;22.25;15.00;;;11.80;99.90;;;;;;4973370;28;20055;-54
2022/06/05 01:03:21;;;;;;;25.92;15.02;;;11.90;99.90;;;;;;4988959;28;20410;-53
2022/06/05 01:05:47;;;;;;;23.55;15.48;;;11.20;99.90;;;;;;4987169;28;20054;-53
2022/06/05 01:08:15;;;;;;;25.95;15.00;;;11.80;99.90;;;;;;4974672;28;20039;-54
2022/06/05 01:11:17;;;;;;;26.80;15.35;;;12.00;99.90;;;;;;4986436;28;20038;-54
2022/06/05 01:14:08;;;;;;;29.98;15.85;;;11.70;99.90;;;;;;4989917;28;20050;-52
2022/06/05 01:16:47;;;;;;;24.45;15.90;;;11.60;99.90;;;;;;4994105;28;20054;-51
2022/06/05 01:19:29;;;;;;;24.52;15.70;;;11.70;99.90;;;;;;4982735;28;20055;-54
2022/06/05 01:22:21;;;;;;;31.58;16.30;;;11.80;99.90;;;;;;4974310;28;20065;-54
2022/06/05 01:25:21;;;;;;;27.55;16.25;;;11.80;99.90;;;;;;4974237;28;20043;-54
2022/06/05 01:27:54;;;;;;;30.70;16.38;;;11.70;99.90;;;;;;4974081;28;20054;-53
2022/06/05 01:30:22;;;;;;;25.35;15.65;;;11.60;99.90;;;;;;4974560;28;20523;-54
2022/06/05 01:33:07;;;;;;;22.73;15.45;;;11.40;99.90;;;;;;4974450;28;20094;-54
2022/06/05 01:35:53;;;;;;;28.85;16.90;;;11.70;99.90;;;;;;4979907;28;20398;-52
2022/06/05 01:38:29;;;;;;;28.90;16.52;;;11.60;99.90;;;;;;4976861;28;20514;-54
2022/06/05 01:41:01;;;;;;;28.38;16.85;;;11.60;99.90;;;;;;4993178;28;20054;-54
2022/06/05 01:43:37;;;;;;;28.77;17.15;;;11.60;99.90;;;;;;4993687;28;20454;-55
2022/06/05 01:46:34;;;;;;;31.08;17.67;;;11.40;99.90;;;;;;4993261;28;20160;-53
2022/06/05 01:49:21;;;;;;;31.45;17.08;;;11.50;99.90;;;;;;4983659;28;20050;-54
2022/06/05 01:52:06;;;;;;;29.05;17.65;;;11.30;99.90;;;;;;4992892;28;20046;-54
2022/06/05 01:54:44;;;;;;;30.40;17.50;;;11.60;99.90;;;;;;4993758;28;20057;-54
2022/06/05 01:57:14;;;;;;;27.67;17.08;;;11.50;99.90;;;;;;4993778;28;20057;-54
2022/06/05 01:59:48;;;;;;;30.38;18.33;;;11.50;99.90;;;;;;4975467;28;20050;-54
2022/06/05 02:02:22;;;;;;;27.95;17.85;;;11.20;99.90;;;;;;4993589;28;20096;-53
2022/06/05 02:04:55;;;;;;;30.60;18.10;;;11.50;99.90;;;;;;4992542;28;20509;-54
2022/06/05 02:07:29;;;;;;;35.42;17.90;;;11.40;99.90;;;;;;4993592;28;20046;-54
2022/06/05 02:10:13;;;;;;;30.95;18.10;;;11.50;99.90;;;;;;4985054;28;20058;-54
2022/06/05 02:12:39;;;;;;;30.08;19.20;;;11.70;99.90;;;;;;4974018;28;20047;-54
2022/06/05 02:15:06;;;;;;;31.48;19.30;;;11.80;99.90;;;;;;4973564;28;20039;-54
2022/06/05 02:17:32;;;;;;;31.00;18.85;;;11.80;99.90;;;;;;4973631;28;20070;-54
2022/06/05 02:19:59;;;;;;;30.80;18.90;;;11.40;99.90;;;;;;4972824;28;20181;-57
2022/06/05 02:22:42;;;;;;;27.13;18.75;;;11.60;99.90;;;;;;4973973;28;20055;-54
2022/06/05 02:25:09;;;;;;;32.25;19.45;;;11.10;99.90;;;;;;4973785;28;20050;-54
2022/06/05 02:27:35;;;;;;;32.72;18.80;;;11.50;99.90;;;;;;4956252;28;20129;-55
2022/06/05 02:30:01;;;;;;;33.10;19.42;;;11.70;99.90;;;;;;4973088;28;20174;-55
2022/06/05 02:32:40;;;;;;;29.05;19.05;;;11.60;99.90;;;;;;4973760;28;20043;-52
2022/06/05 02:35:31;;;;;;;33.75;20.05;;;11.60;99.90;;;;;;4973084;28;20046;-53
2022/06/05 02:38:03;;;;;;;34.75;19.63;;;11.70;99.90;;;;;;4955919;28;20050;-54
2022/06/05 02:40:49;;;;;;;32.08;19.63;;;11.70;99.90;;;;;;4973558;28;20042;-54
2022/06/05 02:44:29;;;;;;;33.50;20.23;;;11.80;99.90;;;;;;4973670;28;20050;-55
2022/06/05 02:47:12;;;;;;;33.60;19.52;;;12.10;99.90;;;;;;4973310;28;20069;-52
2022/06/05 02:49:48;;;;;;;31.58;20.25;;;11.70;99.90;;;;;;4942887;28;20047;-53
2022/06/05 02:52:15;;;;;;;31.15;20.10;;;11.70;99.90;;;;;;4973881;28;20101;-53
2022/06/05 02:54:47;;;;;;;29.25;20.10;;;11.80;99.90;;;;;;4972895;28;20078;-54
2022/06/05 02:57:13;;;;;;;35.15;20.10;;;11.70;99.90;;;;;;4973561;28;20081;-54
2022/06/05 02:59:39;;;;;;;30.27;20.02;;;11.60;99.90;;;;;;4974367;28;20082;-54
2022/06/05 03:04:49;;;;;;;36.95;20.70;;;10.80;99.90;;;;;;4976887;28;20105;-54
2022/06/05 03:07:15;;;;;;;30.08;19.98;;;11.70;99.90;;;;;;4977340;28;20046;-53
2022/06/05 03:09:41;;;;;;;32.47;20.23;;;12.10;99.90;;;;;;4976911;28;20122;-54
2022/06/05 03:12:07;;;;;;;32.97;19.67;;;11.50;99.90;;;;;;4976888;28;20130;-52
2022/06/05 03:14:33;;;;;;;30.10;19.08;;;11.70;99.90;;;;;;4977061;28;20047;-54
2022/06/05 03:16:59;;;;;;;28.45;19.20;;;11.80;99.90;;;;;;4976568;28;20512;-53
2022/06/05 03:19:25;;;;;;;29.75;19.73;;;11.70;99.90;;;;;;4977062;28;20058;-53
2022/06/05 03:21:50;;;;;;;27.85;18.83;;;11.80;99.90;;;;;;4976489;28;20130;-53
2022/06/05 03:24:16;;;;;;;32.75;19.38;;;11.70;99.90;;;;;;4976734;28;20054;-54
2022/06/05 03:26:42;;;;;;;28.00;19.38;;;11.80;99.90;;;;;;4976615;28;20058;-54
2022/06/05 03:29:08;;;;;;;33.58;19.98;;;11.80;99.90;;;;;;4976556;28;20042;-54
2022/06/05 03:31:35;;;;;;;26.27;18.92;;;12.40;99.90;;;;;;4976741;28;20046;-53
2022/06/05 03:34:01;;;;;;;26.30;19.30;;;11.80;99.90;;;;;;4976141;28;20042;-53
2022/06/05 03:36:27;;;;;;;30.00;19.80;;;;;;;;;;4976546;28;20380;-54
2022/06/05 03:38:53;;;;;;;32.47;19.65;;;11.90;99.90;;;;;;4976192;28;20061;-61
2022/06/05 03:41:18;;;;;;;28.00;18.98;;;12.20;99.90;;;;;;4959180;28;20050;-61
2022/06/05 03:43:45;;;;;;;29.75;19.17;;;12.00;99.90;;;;;;4975686;28;20056;-61
2022/06/05 03:46:12;;;;;;;30.20;18.45;;;12.10;99.90;;;;;;4976201;28;20058;-61
2022/06/05 03:48:39;;;;;;;27.77;18.85;;;11.90;99.90;;;;;;4976424;28;20053;-61
2022/06/05 03:51:11;;;;;;;27.38;18.00;;;12.00;99.90;;;;;;4975972;28;20403;-61
2022/06/05 03:53:37;;;;;;;28.73;18.35;;;12.10;99.90;;;;;;4976587;28;20053;-61
2022/06/05 03:56:11;;;;;;;28.35;18.50;;;11.60;99.90;;;;;;4976155;28;20043;-61
2022/06/05 03:58:38;;;;;;;27.10;18.85;;;12.20;99.90;;;;;;4976384;28;20521;-61
2022/06/05 04:01:11;;;;;;;25.67;18.30;;;12.20;99.90;;;;;;4975679;28;20051;-61
2022/06/05 04:03:37;;;;;;;23.95;17.90;;;12.20;99.90;;;;;;4976249;28;20058;-61
2022/06/05 04:06:07;;;;;;;28.15;18.90;;;12.30;99.90;;;;;;4975398;28;20055;-61
2022/06/05 04:08:34;;;;;;;26.80;18.48;;;12.50;99.90;;;;;;4958865;28;20051;-61
2022/06/05 04:11:07;;;;;;;27.73;18.52;;;12.40;99.90;;;;;;4974090;28;20039;-61
2022/06/05 04:13:33;;;;;;;26.48;18.00;;;12.40;99.90;;;;;;4975944;28;20605;-61
2022/06/05 04:15:59;;;;;;;28.85;18.67;;;12.20;99.90;;;;;;4975244;28;20055;-61
2022/06/05 04:18:25;;;;;;;28.90;18.08;;;12.40;99.90;;;;;;4976128;28;20042;-60
2022/06/05 04:20:50;;;;;;;27.80;18.05;;;12.50;99.90;;;;;;4975279;28;20046;-61
2022/06/05 04:23:16;;;;;;;26.42;18.30;;;12.50;99.90;;;;;;4976131;28;20050;-61
2022/06/05 04:25:43;;;;;;;27.40;17.67;;;13.00;99.90;;;;;;4975032;28;20120;-61
2022/06/05 04:28:09;;;;;;;26.42;17.48;;;12.40;99.90;;;;;;4976037;28;20047;-60
2022/06/05 04:30:36;;;;;;;25.15;17.73;;;13.20;99.90;;;;;;4975136;28;20046;-61
2022/06/05 04:33:02;;;;;;;26.98;17.80;;;12.80;99.90;;;;;;4975238;28;20051;-61
2022/06/05 04:35:28;;;;;;;24.10;17.23;;;13.00;99.90;;;;;;4975599;28;20082;-61
2022/06/05 04:37:54;;;;;;;21.77;16.15;;;14.20;99.90;;;;;;4975171;28;20046;-61
2022/06/05 04:40:20;;;;;;;20.90;15.95;;;14.30;99.90;;;;;;4975171;28;20047;-61
2022/06/05 04:42:46;;;;;;;20.85;14.88;;;15.00;99.90;;;;;;4975386;28;20399;-61
2022/06/05 04:45:11;;;;;;;22.10;14.55;;;15.60;99.90;;;;;;4974832;28;20130;-62
2022/06/05 04:47:37;;;;;;;21.23;15.60;;;16.20;99.90;;;;;;4975396;28;20050;-61
2022/06/05 04:50:03;;;;;;;18.45;14.35;;;16.60;99.90;;;;;;4974820;28;20584;-62
2022/06/05 04:52:29;;;;;;;21.58;14.60;;;16.80;99.90;;;;;;4975449;28;20047;-59
2022/06/05 04:54:55;;;;;;;19.00;14.05;;;18.10;99.90;;;;;;4974828;28;20058;-59
2022/06/05 04:57:20;;;;;;;19.20;14.30;;;17.90;99.90;;;;;;4975177;28;20050;-59
2022/06/05 04:59:46;;;;;;;19.10;13.93;;;18.00;99.90;;;;;;4974475;28;20134;-59
2022/06/05 05:02:12;;;;;;;16.25;12.88;;;18.00;99.90;;;;;;4975295;28;20081;-59
2022/06/05 05:04:37;;;;;;;17.95;13.65;;;18.20;99.90;;;;;;4974954;28;20546;-52
2022/06/05 05:07:03;;;;;;;16.02;12.38;;;18.40;99.90;;;;;;4974395;28;20078;-51
2022/06/05 05:09:29;;;;;;;16.10;12.48;;;18.50;99.90;;;;;;4974748;28;20458;-52
2022/06/05 05:11:55;;;;;;;15.07;12.27;;;18.70;99.90;;;;;;4974638;28;20118;-50
2022/06/05 05:14:21;;;;;;;15.35;11.98;;;19.70;99.90;;;;;;4974600;28;20464;-52
2022/06/05 05:16:46;;;;;;;14.63;12.07;;;18.40;99.90;;;;;;4974385;28;20054;-52
2022/06/05 05:19:12;;;;;;;15.90;11.70;;;19.00;99.90;;;;;;4974740;28;20406;-52
2022/06/05 05:21:39;;;;;;;17.48;12.32;;;16.20;99.90;;;;;;4974760;28;20038;-51
2022/06/05 05:24:07;;;;;;;15.27;11.52;;;18.70;99.90;;;;;;4973981;28;20554;-52
2022/06/05 05:26:34;;;;;;;13.52;11.43;;;19.00;99.90;;;;;;4974563;28;20065;-51
2022/06/05 05:29:01;;;;;;;17.02;11.93;;;18.90;99.90;;;;;;4973936;28;20047;-47
2022/06/05 05:31:31;;;;;;;13.82;11.18;;;18.90;99.90;;;;;;4974512;28;20085;-49
2022/06/05 05:33:56;;;;;;;17.90;11.18;;;19.00;99.90;;;;;;4974072;28;20039;-49
2022/06/05 05:36:24;;;;;;;16.80;11.20;;;18.90;99.90;;;;;;4973727;28;20407;-51
2022/06/05 05:44:20;;;;;;;15.25;11.27;;;18.40;99.90;;;;;;4973889;28;20384;-54
2022/06/05 05:46:46;;;;;;;15.70;11.15;;;17.80;99.90;;;;;;4973809;28;20101;-54
2022/06/05 05:49:13;;;;;;;14.75;10.80;;;17.70;99.90;;;;;;4974199;28;20055;-54
2022/06/05 05:51:39;;;;;;;15.40;10.35;;;17.80;99.90;;;;;;4974280;28;20046;-54
2022/06/05 05:54:05;;;;;;;14.88;11.00;;;17.40;99.90;;;;;;4974330;28;20380;-55
2022/06/05 05:56:32;;;;;;;15.93;11.25;;;17.60;99.90;;;;;;4956374;28;20058;-54
2022/06/05 05:58:58;;;;;;;18.05;11.25;;;17.60;99.90;;;;;;4973442;28;20050;-54
2022/06/05 06:01:24;;;;;;;17.73;11.25;;;17.60;99.90;;;;;;4973964;28;20105;-54
2022/06/05 06:03:50;;;;;;;16.25;11.45;;;17.60;99.90;;;;;;4973826;28;20082;-55
2022/06/05 06:06:28;;;;;;;13.70;10.50;;;17.50;99.90;;;;;;4973671;28;20522;-54
2022/06/05 06:08:54;;;;;;;13.73;11.15;;;17.40;99.90;;;;;;4973701;28;20047;-55
2022/06/05 06:11:21;;;;;;;14.50;11.07;;;17.30;99.90;;;;;;4973338;28;20050;-54
2022/06/05 06:13:46;;;;;;;13.43;10.10;;;17.40;99.90;;;;;;4973414;28;20042;-54
2022/06/05 06:16:12;;;;;;;15.30;11.23;;;17.40;99.90;;;;;;4956189;28;20564;-54
2022/06/05 06:18:38;;;;;;;13.32;10.32;;;17.50;99.90;;;;;;4973934;28;20042;-54
2022/06/05 06:21:04;;;;;;;15.27;10.55;;;17.40;99.90;;;;;;4973582;28;20054;-53
2022/06/05 06:23:30;;;;;;;15.35;10.60;;;17.40;99.90;;;;;;4973889;28;20514;-54
2022/06/05 06:25:55;;;;;;;13.43;10.82;;;17.30;99.90;;;;;;4972753;28;20066;-53
2022/06/05 06:28:21;;;;;;;14.25;10.52;;;17.30;99.90;;;;;;4973807;28;20050;-54
2022/06/05 06:30:47;;;;;;;18.15;10.70;;;17.60;99.90;;;;;;4973160;28;20093;-54
2022/06/05 06:33:14;;;;;;;16.50;10.07;;;17.40;99.90;;;;;;4973710;28;20050;-54
2022/06/05 06:35:40;;;;;;;12.15;9.32;;;17.70;99.90;;;;;;4972605;28;20039;-55
2022/06/05 06:38:06;;;;;;;13.43;10.48;;;17.90;99.90;;;;;;4973411;28;20466;-54
2022/06/05 06:40:34;;;;;;;14.02;10.10;;;18.00;99.90;;;;;;4955936;28;20062;-54
2022/06/05 06:43:00;;;;;;;12.32;8.93;;;18.30;99.90;;;;;;4973126;28;20051;-52
2022/06/05 06:45:26;;;;;;;13.05;9.48;;;18.50;99.90;;;;;;4972822;28;20059;-54
2022/06/05 06:47:51;;;;;;;14.18;9.05;;;19.20;99.90;;;;;;4973217;28;20061;-54
2022/06/05 06:50:17;;;;;;;11.00;8.95;;;19.10;99.90;;;;;;4973446;28;20412;-54
2022/06/05 06:52:43;;;;;;;11.80;8.73;;;19.50;99.90;;;;;;4973304;28;20043;-62
2022/06/05 06:55:15;;;;;;;12.38;8.75;;;19.90;99.90;;;;;;4972728;28;20046;-62
2022/06/05 06:57:45;;;;;;;12.80;8.77;;;20.30;99.90;;;;;;4973060;28;20059;-61
2022/06/05 07:00:15;;;;;;;12.50;8.90;;;20.50;99.90;;;;;;4973259;28;20051;-61
2022/06/05 07:02:40;;;;;;;10.70;8.05;;;20.80;99.90;;;;;;4955932;28;20055;-61
2022/06/05 07:05:06;;;;;;;11.45;8.38;;;21.10;99.90;;;;;;4972751;28;20399;-61
2022/06/05 07:07:32;;;;;;;12.27;8.57;;;21.40;99.90;;;;;;4973105;28;20145;-61
2022/06/05 07:09:58;;;;;;;15.02;8.60;;;21.60;99.90;;;;;;4972403;28;20046;-62
2022/06/05 07:12:23;;;;;;;13.18;8.60;;;21.10;99.90;;;;;;4955989;28;20051;-62
2022/06/05 07:14:49;;;;;;;10.75;8.48;;;21.40;99.90;;;;;;4972901;28;20042;-61
2022/06/05 07:17:15;;;;;;;14.55;8.30;;;21.00;99.90;;;;;;4973142;28;20047;-62
2022/06/05 07:19:40;;;;;;;10.77;8.20;;;20.80;99.90;;;;;;4972998;28;20043;-62
2022/06/05 07:22:06;;;;;;;13.15;8.25;;;20.50;99.90;;;;;;4972959;28;20499;-61
2022/06/05 07:24:32;;;;;;;11.30;8.43;;;20.40;99.90;;;;;;4955588;28;20458;-62
2022/06/05 07:26:57;;;;;;;9.57;7.72;;;20.40;99.90;;;;;;4972862;28;20086;-62
2022/06/05 07:29:23;;;;;;;12.00;7.72;;;20.50;99.90;;;;;;4972241;28;20079;-62
2022/06/05 07:31:49;;;;;;;9.68;7.57;;;20.70;99.90;;;;;;4982649;28;20437;-62
2022/06/05 07:34:14;;;;;;;8.77;7.43;;;20.70;99.90;;;;;;4982498;28;20046;-61
2022/06/05 07:36:40;;;;;;;8.40;7.35;;;20.80;99.90;;;;;;4978939;28;20077;-62
2022/06/05 07:39:06;;;;;;;10.95;7.25;;;20.70;99.90;;;;;;4978548;28;20499;-62
2022/06/05 07:41:36;;;;;;;8.80;7.15;;;20.80;99.90;;;;;;4981731;28;20059;-62
2022/06/05 07:44:03;;;;;;;14.32;7.63;;;20.90;99.90;;;;;;4982481;28;20062;-61
2022/06/05 07:46:30;;;;;;;10.70;6.90;;;20.90;99.90;;;;;;4986794;28;20169;-62
2022/06/05 07:48:56;;;;;;;10.52;7.43;;;21.10;99.90;;;;;;4977309;28;20042;-62
2022/06/05 07:54:27;;;;;;;9.55;7.28;;;21.10;99.90;;;;;;4994072;28;20185;-61
2022/06/05 07:56:59;;;;;;;10.48;7.38;;;20.90;99.90;;;;;;4994709;28;20414;-62
2022/06/05 07:59:27;;;;;;;11.30;7.07;;;20.80;99.90;;;;;;4994339;28;20059;-62
2022/06/05 08:01:52;;;;;;;9.40;7.50;;;20.70;99.90;;;;;;4994181;28;20086;-62
2022/06/05 08:04:18;;;;;;;9.25;7.20;;;20.70;99.90;;;;;;4994471;28;20525;-62
2022/06/05 08:06:44;;;;;;;11.15;7.28;;;20.70;99.90;;;;;;4976799;28;20058;-62
2022/06/05 08:09:09;;;;;;;10.23;6.93;;;20.70;99.90;;;;;;4994182;28;20402;-62
2022/06/05 08:11:36;;;;;;;10.73;6.80;;;20.80;99.90;;;;;;4994557;28;20502;-62
2022/06/05 08:14:03;;;;;;;11.90;7.30;;;20.80;99.90;;;;;;4993438;28;20057;-62
2022/06/05 08:16:29;;;;;;;10.30;7.20;;;20.90;99.90;;;;;;4994192;28;20054;-62
2022/06/05 08:18:55;;;;;;;11.38;7.63;;;20.90;99.90;;;;;;4976888;28;20466;-62
2022/06/05 08:21:22;;;;;;;9.20;7.03;;;21.00;99.90;;;;;;4993916;28;20042;-62
2022/06/05 08:23:48;;;;;;;10.10;6.95;;;21.00;99.90;;;;;;4994275;28;20406;-62
2022/06/05 08:26:14;;;;;;;10.30;7.20;;;21.00;99.90;;;;;;4993804;28;20125;-62
2022/06/05 08:28:41;;;;;;;8.52;6.78;;;21.00;99.90;;;;;;4975709;28;20322;-62
2022/06/05 08:31:07;;;;;;;8.50;7.20;;;20.90;99.90;;;;;;4993160;28;20061;-62
2022/06/05 08:33:34;;;;;;;9.10;6.95;;;21.00;99.90;;;;;;4994090;28;20129;-62
2022/06/05 08:35:59;;;;;;;11.55;6.90;;;21.00;99.90;;;;;;4983159;28;20045;-62
2022/06/05 08:41:27;;;;;;;10.85;7.35;;;21.20;99.90;;;;;;4993675;28;20042;-62
2022/06/05 08:44:05;;;;;;;14.35;7.07;;;21.40;99.90;;;;;;4992431;28;20434;-61
2022/06/05 08:46:41;;;;;;;10.80;6.45;;;21.50;99.90;;;;;;4993409;28;20050;-63
2022/06/05 08:49:09;;;;;;;8.25;7.30;;;21.50;99.90;;;;;;4993837;28;20046;-62
2022/06/05 08:51:41;;;;;;;8.93;7.00;;;21.60;99.90;;;;;;4993444;28;20072;-61
2022/06/05 08:54:18;;;;;;;12.55;6.88;;;21.70;99.90;;;;;;4987472;28;20050;-63
2022/06/05 08:56:53;;;;;;;7.97;6.68;;;21.90;99.90;;;;;;4980725;28;20051;-59
2022/06/05 08:59:26;;;;;;;;;;;22.00;99.90;;;;;;4989762;28;20434;-61
2022/06/05 09:01:58;;;;;;;10.32;6.78;;;22.00;99.30;;;;;;4993163;28;19969;-60
2022/06/05 09:04:53;;;;;;;9.65;6.97;;;22.00;99.90;;;;;;4994047;28;20038;-61
2022/06/05 09:07:50;;;;;;;8.65;6.65;;;22.10;99.90;;;;;;4994226;28;20520;-62
2022/06/05 09:10:43;;;;;;;10.15;7.00;;;22.20;99.90;;;;;;4994343;28;20051;-61
2022/06/05 09:13:31;;;;;;;12.32;7.18;;;22.20;99.90;;;;;;4994048;28;20093;-60
2022/06/05 09:15:59;;;;;;;10.73;7.40;;;22.20;99.90;;;;;;4993549;28;20061;-60
2022/06/05 09:18:35;;;;;;;11.25;7.30;;;22.40;99.30;;;;;;4977021;28;20081;-62
2022/06/05 09:21:06;;;;;;;9.27;6.90;;;22.50;99.00;;;;;;4993338;28;20406;-62
2022/06/05 09:23:41;;;;;;;8.40;7.18;;;22.60;99.50;;;;;;4993770;28;20526;-62
2022/06/05 09:26:33;;;;;;;9.35;6.80;;;22.80;99.30;;;;;;4960134;28;20134;-62
2022/06/05 09:29:07;;;;;;;8.05;6.50;;;23.00;98.50;;;;;;4993636;28;20143;-61
2022/06/05 09:32:00;;;;;;;7.03;6.32;;;23.00;98.20;;;;;;4976579;28;20474;-62
2022/06/05 09:34:40;;;;;;;9.82;6.53;;;23.20;98.80;;;;;;4983909;28;20043;-62
2022/06/05 09:37:11;;;;;;;8.25;6.30;;;23.30;98.10;;;;;;4973562;28;20419;-61
2022/06/05 09:39:58;;;;;;;10.85;6.80;;;23.50;97.80;;;;;;4974115;28;20129;-62
2022/06/05 09:42:51;;;;;;;9.93;6.70;;;23.50;97.20;;;;;;4976316;28;20371;-61
2022/06/05 09:45:20;;;;;;;8.95;6.60;;;23.60;96.50;;;;;;4972168;28;20487;-62
2022/06/05 09:48:23;;;;;;;7.70;6.18;;;23.50;95.70;;;;;;4993321;28;20050;-62
2022/06/05 09:50:49;;;;;;;10.15;6.35;;;23.60;94.90;;;;;;4993438;28;20057;-61
2022/06/05 09:53:21;;;;;;;10.25;6.57;;;23.50;95.60;;;;;;4993306;28;20393;-61
2022/06/05 09:56:02;;;;;;;7.57;6.75;;;23.50;95.20;;;;;;4992932;28;20465;-61
2022/06/05 09:58:42;;;;;;;9.55;6.80;;;23.60;93.30;;;;;;4993693;28;20054;-61
2022/06/05 10:01:23;;;;;;;9.30;6.65;;;23.60;94.30;;;;;;4992706;28;20043;-61
2022/06/05 10:03:50;;;;;;;10.52;6.72;;;23.60;94.70;;;;;;4992353;28;20054;-61
2022/06/05 10:06:19;;;;;;;10.07;6.85;;;23.60;94.60;;;;;;4993101;28;20447;-62
2022/06/05 10:08:48;;;;;;;17.25;6.40;;;23.80;93.70;;;;;;4992293;28;20053;-61
2022/06/05 10:11:23;;;;;;;10.45;6.85;;;23.80;94.10;;;;;;4992903;28;20050;-62
2022/06/05 10:14:16;;;;;;;10.85;7.05;;;23.80;92.60;;;;;;4975004;28;20089;-61
2022/06/05 10:16:49;;;;;;;13.80;7.03;;;23.80;93.30;;;;;;4975756;28;20050;-62
2022/06/05 10:19:33;;;;;;;10.77;6.25;;;23.80;93.30;;;;;;4992566;28;20094;-62
2022/06/05 10:22:11;;;;;;;11.98;7.32;;;23.90;94.20;;;;;;4992674;28;20050;-62
2022/06/05 10:24:59;;;;;;;10.35;7.38;;;24.10;92.20;;;;;;4959355;28;20116;-62
2022/06/05 10:27:26;;;;;;;12.15;6.80;;;24.10;92.50;;;;;;4992979;28;20050;-62
2022/06/05 10:29:56;;;;;;;8.10;6.40;;;24.10;92.30;;;;;;4992307;28;20053;-62
2022/06/05 10:32:43;;;;;;;8.45;7.22;;;24.20;92.50;;;;;;4959568;28;20192;-62
2022/06/05 10:35:20;;;;;;;12.02;6.93;;;24.20;90.60;;;;;;4992774;28;20108;-61
2022/06/05 10:38:10;;;;;;;9.95;6.97;;;24.30;92.40;;;;;;4992498;28;20053;-61
2022/06/05 10:40:51;;;;;;;9.68;6.78;;;24.30;90.80;;;;;;4958829;28;20058;-61
2022/06/05 10:43:24;;;;;;;7.82;6.60;;;24.30;90.10;;;;;;4992856;28;20058;-60
2022/06/05 10:46:06;;;;;;;11.18;6.95;;;24.30;90.80;;;;;;4992179;28;20054;-61
2022/06/05 10:48:58;;;;;;;13.55;6.70;;;24.30;89.30;;;;;;4973912;28;20526;-61
2022/06/05 10:51:49;;;;;;;8.48;6.97;;;24.20;91.00;;;;;;4992813;28;20121;-61
2022/06/05 10:54:34;;;;;;;9.65;6.68;;;24.20;91.50;;;;;;4992518;28;20046;-61
2022/06/05 10:57:20;;;;;;;7.90;6.35;;;24.20;91.10;;;;;;4992443;28;20073;-63
2022/06/05 11:00:18;;;;;;;11.52;6.80;;;24.20;91.20;;;;;;4991840;28;20075;-63
2022/06/05 11:03:11;;;;;;;8.80;7.20;;;24.20;90.10;;;;;;4991876;28;20062;-61
2022/06/05 11:06:07;;;;;;;8.85;6.72;;;24.10;90.70;;;;;;4991993;28;20046;-61
2022/06/05 11:09:00;;;;;;;11.75;6.97;;;24.10;91.30;;;;;;4976423;28;20054;-60
2022/06/05 11:14:46;;;;;;;10.85;6.57;;;24.00;90.80;;;;;;4976242;28;20519;-60
2022/06/05 11:17:43;;;;;;;14.20;6.47;;;23.90;91.80;;;;;;4993930;28;20061;-60
2022/06/05 11:20:13;;;;;;;9.40;6.60;;;24.00;92.70;;;;;;4994948;28;20125;-60
2022/06/05 11:22:58;;;;;;;8.40;6.50;;;24.10;92.20;;;;;;4997433;28;20057;-62
2022/06/05 11:25:25;;;;;;;11.23;6.55;;;24.00;90.90;;;;;;4980201;28;20069;-61
2022/06/05 11:28:00;;;;;;;11.30;6.18;;;24.00;91.60;;;;;;4998101;28;20058;-61
2022/06/05 11:30:32;;;;;;;11.77;6.47;;;24.00;91.90;;;;;;4997637;28;20457;-62
2022/06/05 11:33:31;;;;;;;9.30;6.55;;;24.00;91.00;;;;;;4997657;28;20082;-61
2022/06/05 11:36:21;;;;;;;8.57;6.40;;;24.00;91.60;;;;;;4945052;28;20102;-61
2022/06/05 11:39:05;;;;;;;12.05;6.05;;;24.00;92.40;;;;;;4997477;28;20449;-61
2022/06/05 11:41:46;;;;;;;8.40;7.03;;;24.10;92.70;;;;;;4997464;28;20430;-61
2022/06/05 11:44:23;;;;;;;7.65;6.45;;;24.10;92.40;;;;;;4997112;28;20487;-61
2022/06/05 11:47:02;;;;;;;8.95;6.55;;;24.10;92.50;;;;;;4997336;28;20105;-61
2022/06/05 11:49:47;;;;;;;9.55;6.35;;;24.10;92.30;;;;;;4997769;28;20053;-62
2022/06/05 11:52:29;;;;;;;9.77;6.30;;;24.20;92.70;;;;;;4997292;28;20061;-61
2022/06/05 11:55:14;;;;;;;12.43;6.00;;;24.20;93.20;;;;;;4979513;28;20149;-56
2022/06/05 11:58:04;;;;;;;9.60;6.13;;;24.20;92.00;;;;;;4979575;28;20057;-62
2022/06/05 12:00:50;;;;;;;9.57;6.40;;;24.20;91.10;;;;;;4997152;28;20058;-56
2022/06/05 12:03:29;;;;;;;9.27;6.45;;;24.10;91.80;;;;;;4997076;28;20121;-57
2022/06/05 12:06:21;;;;;;;8.45;5.78;;;24.00;92.40;;;;;;4996934;28;20053;-56
2022/06/05 12:09:03;;;;;;;12.45;6.43;;;24.00;93.10;;;;;;4996617;28;20125;-56
2022/06/05 12:11:51;;;;;;;6.82;6.13;;;24.00;92.70;;;;;;4996955;28;20120;-56
2022/06/05 12:14:21;;;;;;;8.05;6.43;;;24.00;93.40;;;;;;4996566;28;20050;-61
2022/06/05 12:17:05;;;;;;;8.50;6.15;;;24.00;93.60;;;;;;4979092;28;20050;-62
2022/06/05 12:19:46;;;;;;;7.50;6.10;;;24.00;93.40;;;;;;4997038;28;20478;-63
2022/06/05 12:22:20;;;;;;;8.07;6.80;;;23.90;93.30;;;;;;4996716;28;20078;-62
2022/06/05 12:24:52;;;;;;;8.80;6.30;;;23.90;93.50;;;;;;4996676;28;20046;-63
2022/06/05 12:27:20;;;;;;;9.73;6.43;;;23.80;94.30;;;;;;4996219;28;20451;-62
2022/06/05 12:30:06;;;;;;;10.02;6.50;;;23.80;94.80;;;;;;4978690;28;20128;-61
2022/06/05 12:32:38;;;;;;;9.50;6.22;;;23.90;94.50;;;;;;4995161;28;20129;-59
2022/06/05 12:35:23;;;;;;;11.07;6.07;;;23.90;94.10;;;;;;4996123;28;20504;-55
2022/06/05 12:38:14;;;;;;;11.57;6.10;;;23.90;94.10;;;;;;4996436;28;20058;-55
2022/06/05 12:40:49;;;;;;;7.82;5.90;;;23.90;94.10;;;;;;4996354;28;20093;-56
2022/06/05 12:43:53;;;;;;;9.88;5.88;;;24.00;93.90;;;;;;4996139;28;20042;-55
2022/06/05 12:46:21;;;;;;;7.15;5.88;;;24.00;94.80;;;;;;4996216;28;20062;-55
2022/06/05 12:48:47;;;;;;;7.57;5.65;;;24.10;94.70;;;;;;4978520;28;20056;-55
2022/06/05 12:51:18;;;;;;;7.28;5.90;;;24.20;94.30;;;;;;4996131;28;20125;-55
2022/06/05 12:53:51;;;;;;;8.63;6.03;;;24.20;93.10;;;;;;4996161;28;20397;-55
2022/06/05 12:56:25;;;;;;;8.85;5.82;;;24.30;92.00;;;;;;4996113;28;20050;-57
2022/06/05 12:58:55;;;;;;;7.97;5.50;;;24.30;92.30;;;;;;4995729;28;20115;-56
2022/06/05 13:01:27;;;;;;;6.93;5.80;;;24.30;91.90;;;;;;4995687;28;20057;-55
2022/06/05 13:04:21;;;;;;;10.43;5.93;;;24.30;92.00;;;;;;4995940;28;20058;-55
2022/06/05 13:06:59;;;;;;;10.07;5.80;;;24.30;90.90;;;;;;4995763;28;20057;-55
2022/06/05 13:09:42;;;;;;;8.10;5.80;;;24.20;91.90;;;;;;4995887;28;20078;-55
2022/06/05 13:12:17;;;;;;;10.07;5.78;;;24.20;92.30;;;;;;4995812;28;20484;-56
2022/06/05 13:14:52;;;;;;;9.40;6.00;;;24.10;92.20;;;;;;4995673;28;20054;-55
2022/06/05 13:17:56;;;;;;;8.38;5.90;;;24.10;93.00;;;;;;4995444;28;20129;-55
2022/06/05 13:20:41;;;;;;;7.40;5.60;;;24.10;93.20;;;;;;4995566;28;20153;-55
2022/06/05 13:23:25;;;;;;;;;;;24.10;93.40;;;;;;4996002;28;20049;-55
2022/06/05 13:26:20;;;;;;;8.60;5.78;;;24.10;93.20;;;;;;4995436;28;19918;-56